Euro IV — IQNH — position and weather

sailwx.info

Track history (hours):
 
Tides and Currents Weather Stations Pressure Air Temp Water Temp Dewpoint Dewpoint Depression Visibility Wind Speed Wind Dir Waves Ship Positions

Euro IV

Last reported at 2016-May-28 14:33 UTC. Time now 2016-May-28 20:41 UTC.
Position N 44°03' E 009°51'.

Length 25 m; draft 1.3 m.

Type: Passenger vessel. MMSI: 247131500.

Date/timePositionNaut miles runAvg speedWind from/ knotsBaromVisibWave heightAir tempDewpointWater temp
2016-May-28 14:33N 44°03' E 009°51'6 6.2
2016-May-28 13:33N 44°06' E 009°43'4 3.6
2016-May-28 12:33N 44°09' E 009°39'0 0.0
2016-May-28 11:33N 44°09' E 009°39'4 3.6
2016-May-28 10:21N 44°06' E 009°44'0 0.4
2016-May-28 09:30N 44°06' E 009°44'0 0.4
2016-May-28 08:33N 44°06' E 009°44'6 5.7
2016-May-28 07:33N 44°04' E 009°51'3 2.8
2016-May-28 06:33N 44°06' E 009°50'0 0.0
2016-May-27 16:11N 44°06' E 009°50'3 4.9
2016-May-27 15:33N 44°04' E 009°52'2 1.7
2016-May-27 14:33N 44°03' E 009°50'0 0.0
2016-May-27 13:33N 44°03' E 009°50'0 0.0
2016-May-27 12:33N 44°03' E 009°50'0 0.0
2016-May-27 11:33N 44°03' E 009°50'1 0.7
2016-May-27 10:33N 44°02' E 009°50'7 6.8
2016-May-27 09:33N 44°06' E 009°42'1 1.2
2016-May-27 08:29N 44°06' E 009°44'8 8.2
2016-May-27 07:33N 44°04' E 009°54'4 3.9
2016-May-27 06:33N 44°06' E 009°50'0 0.0
2016-May-27 05:33N 44°06' E 009°50'0 0.0
2016-May-26 17:33N 44°06' E 009°50'1211.8
2016-May-26 16:33N 44°09' E 009°34'2 1.1
2016-May-26 14:34N 44°11' E 009°32'6 3.2
2016-May-26 12:34N 44°08' E 009°39'4 1.8
2016-May-26 10:34N 44°06' E 009°44'0 0.2
2016-May-26 09:33N 44°06' E 009°44'4 4.1
2016-May-26 08:33N 44°06' E 009°49'0 0.0
2016-May-25 12:34N 44°06' E 009°50'3 2.8
2016-May-25 11:33N 44°03' E 009°50'10 9.5
2016-May-25 10:33N 44°09' E 009°39'0 0.1
2016-May-25 09:30N 44°09' E 009°39'1 0.6
2016-May-25 08:33N 44°08' E 009°40'9 9.0
2016-May-25 07:33N 44°03' E 009°50'0 0.0
2016-May-25 06:33N 44°03' E 009°50'3 0.1
2016-May-23 09:20N 44°06' E 009°49'3 4.0
2016-May-23 08:33N 44°03' E 009°50'3 0.2
2016-May-22 14:15N 44°06' E 009°50'3 4.3
2016-May-22 13:33N 44°03' E 009°50'0 0.1
2016-May-22 12:33N 44°03' E 009°50'0 0.1
2016-May-22 11:33N 44°03' E 009°50'1 0.6
2016-May-22 10:34N 44°03' E 009°50'1 0.6
2016-May-22 09:34N 44°03' E 009°50'6 6.4
2016-May-22 08:33N 44°06' E 009°42'7 6.6
2016-May-22 07:33N 44°03' E 009°51'3 0.2
2016-May-21 15:29N 44°06' E 009°50'3 3.3
2016-May-21 14:34N 44°04' E 009°47'7 7.0
2016-May-21 13:33N 44°09' E 009°39'4 4.2
2016-May-21 12:30N 44°06' E 009°44'4 4.8
2016-May-21 11:33N 44°09' E 009°39'3 2.9
2016-May-21 10:32N 44°07' E 009°42'7 6.9
2016-May-21 09:34N 44°03' E 009°50'5 5.0
2016-May-21 08:33N 44°05' E 009°44'5 4.8
2016-May-21 07:33N 44°09' E 009°39'10 9.6
2016-May-21 06:33N 44°03' E 009°50'3 0.2
2016-May-20 15:33N 44°06' E 009°50'4 3.7
2016-May-20 14:33N 44°05' E 009°54'3 2.7
2016-May-20 13:33N 44°03' E 009°51'3 2.7
2016-May-20 12:33N 44°05' E 009°55'4 4.0
2016-May-20 11:33N 44°06' E 009°50'0 0.0
2016-May-20 10:33N 44°06' E 009°50'0 0.0
2016-May-20 09:33N 44°06' E 009°50'0 0.0
2016-May-20 08:33N 44°06' E 009°50'0 0.0
2016-May-20 07:33N 44°06' E 009°50'0 0.0
2016-May-19 08:34N 44°06' E 009°49'0 0.0
2016-May-19 07:26N 44°06' E 009°49'  
Track history (hours):
 
Tides and Currents Weather Stations Pressure Air Temp Water Temp Dewpoint Dewpoint Depression Visibility Wind Speed Wind Dir Waves Ship Positions

Euro IV

Last reported at 2016-May-28 14:33 UTC. Time now 2016-May-28 20:41 UTC.
Position N 44°03' E 009°51'.

Length 25 m; draft 1.3 m.

Type: Passenger vessel. MMSI: 247131500.

Date/timePositionNaut miles runAvg speedWind from/ knotsBaromVisibWave heightAir tempDewpointWater temp
2016-May-28 14:33N 44°03' E 009°51'6 6.2
2016-May-28 13:33N 44°06' E 009°43'4 3.6
2016-May-28 12:33N 44°09' E 009°39'0 0.0
2016-May-28 11:33N 44°09' E 009°39'4 3.6
2016-May-28 10:21N 44°06' E 009°44'0 0.4
2016-May-28 09:30N 44°06' E 009°44'0 0.4
2016-May-28 08:33N 44°06' E 009°44'6 5.7
2016-May-28 07:33N 44°04' E 009°51'3 2.8
2016-May-28 06:33N 44°06' E 009°50'0 0.0
2016-May-27 16:11N 44°06' E 009°50'3 4.9
2016-May-27 15:33N 44°04' E 009°52'2 1.7
2016-May-27 14:33N 44°03' E 009°50'0 0.0
2016-May-27 13:33N 44°03' E 009°50'0 0.0
2016-May-27 12:33N 44°03' E 009°50'0 0.0
2016-May-27 11:33N 44°03' E 009°50'1 0.7
2016-May-27 10:33N 44°02' E 009°50'7 6.8
2016-May-27 09:33N 44°06' E 009°42'1 1.2
2016-May-27 08:29N 44°06' E 009°44'8 8.2
2016-May-27 07:33N 44°04' E 009°54'4 3.9
2016-May-27 06:33N 44°06' E 009°50'0 0.0
2016-May-27 05:33N 44°06' E 009°50'0 0.0
2016-May-26 17:33N 44°06' E 009°50'1211.8
2016-May-26 16:33N 44°09' E 009°34'2 1.1
2016-May-26 14:34N 44°11' E 009°32'6 3.2
2016-May-26 12:34N 44°08' E 009°39'4 1.8
2016-May-26 10:34N 44°06' E 009°44'0 0.2
2016-May-26 09:33N 44°06' E 009°44'4 4.1
2016-May-26 08:33N 44°06' E 009°49'0 0.0
2016-May-25 12:34N 44°06' E 009°50'3 2.8
2016-May-25 11:33N 44°03' E 009°50'10 9.5
2016-May-25 10:33N 44°09' E 009°39'0 0.1
2016-May-25 09:30N 44°09' E 009°39'1 0.6
2016-May-25 08:33N 44°08' E 009°40'9 9.0
2016-May-25 07:33N 44°03' E 009°50'0 0.0
2016-May-25 06:33N 44°03' E 009°50'3 0.1
2016-May-23 09:20N 44°06' E 009°49'3 4.0
2016-May-23 08:33N 44°03' E 009°50'3 0.2
2016-May-22 14:15N 44°06' E 009°50'3 4.3
2016-May-22 13:33N 44°03' E 009°50'0 0.1
2016-May-22 12:33N 44°03' E 009°50'0 0.1
2016-May-22 11:33N 44°03' E 009°50'1 0.6
2016-May-22 10:34N 44°03' E 009°50'1 0.6
2016-May-22 09:34N 44°03' E 009°50'6 6.4
2016-May-22 08:33N 44°06' E 009°42'7 6.6
2016-May-22 07:33N 44°03' E 009°51'3 0.2
2016-May-21 15:29N 44°06' E 009°50'3 3.3
2016-May-21 14:34N 44°04' E 009°47'7 7.0
2016-May-21 13:33N 44°09' E 009°39'4 4.2
2016-May-21 12:30N 44°06' E 009°44'4 4.8
2016-May-21 11:33N 44°09' E 009°39'3 2.9
2016-May-21 10:32N 44°07' E 009°42'7 6.9
2016-May-21 09:34N 44°03' E 009°50'5 5.0
2016-May-21 08:33N 44°05' E 009°44'5 4.8
2016-May-21 07:33N 44°09' E 009°39'10 9.6
2016-May-21 06:33N 44°03' E 009°50'3 0.2
2016-May-20 15:33N 44°06' E 009°50'4 3.7
2016-May-20 14:33N 44°05' E 009°54'3 2.7
2016-May-20 13:33N 44°03' E 009°51'3 2.7
2016-May-20 12:33N 44°05' E 009°55'4 4.0
2016-May-20 11:33N 44°06' E 009°50'0 0.0
2016-May-20 10:33N 44°06' E 009°50'0 0.0
2016-May-20 09:33N 44°06' E 009°50'0 0.0
2016-May-20 08:33N 44°06' E 009°50'0 0.0
2016-May-20 07:33N 44°06' E 009°50'0 0.0
2016-May-19 08:34N 44°06' E 009°49'0 0.0
2016-May-19 07:26N 44°06' E 009°49'  

Dump ship's entire track history